sensor_id;sensor_type;location;lat;lon;timestamp;pressure;altitude;pressure_sealevel;temperature;humidity
77263;BME280;66373;52.334;4.806;2023-05-14T00:01:05;102061.06;;;22.71;49.45
77263;BME280;66373;52.334;4.806;2023-05-14T00:03:34;102054.09;;;22.69;49.47
77263;BME280;66373;52.334;4.806;2023-05-14T00:06:06;102050.75;;;22.61;49.62
77263;BME280;66373;52.334;4.806;2023-05-14T00:08:35;102054.16;;;22.65;49.58
77263;BME280;66373;52.334;4.806;2023-05-14T00:11:04;102050.63;;;22.67;49.55
77263;BME280;66373;52.334;4.806;2023-05-14T00:13:33;102032.38;;;22.61;49.46
77263;BME280;66373;52.334;4.806;2023-05-14T00:16:00;102036.69;;;22.65;49.58
77263;BME280;66373;52.334;4.806;2023-05-14T00:18:28;102035.00;;;22.61;49.62
77263;BME280;66373;52.334;4.806;2023-05-14T00:20:56;102027.97;;;22.63;49.44
77263;BME280;66373;52.334;4.806;2023-05-14T00:23:23;102007.41;;;22.45;49.43
77263;BME280;66373;52.334;4.806;2023-05-14T00:25:50;102026.34;;;22.59;49.48
77263;BME280;66373;52.334;4.806;2023-05-14T00:28:17;102017.78;;;22.51;49.55
77263;BME280;66373;52.334;4.806;2023-05-14T00:30:44;102029.00;;;22.58;49.61
77263;BME280;66373;52.334;4.806;2023-05-14T00:33:11;102028.13;;;22.57;49.55
77263;BME280;66373;52.334;4.806;2023-05-14T00:35:39;102020.31;;;22.54;49.61
77263;BME280;66373;52.334;4.806;2023-05-14T00:38:07;102019.44;;;22.55;49.62
77263;BME280;66373;52.334;4.806;2023-05-14T00:40:34;102022.94;;;22.54;49.49
77263;BME280;66373;52.334;4.806;2023-05-14T00:43:01;102017.72;;;22.53;49.69
77263;BME280;66373;52.334;4.806;2023-05-14T00:45:29;102013.41;;;22.50;49.46
77263;BME280;66373;52.334;4.806;2023-05-14T00:47:56;102013.41;;;22.50;49.63
77263;BME280;66373;52.334;4.806;2023-05-14T00:50:23;102006.50;;;22.46;49.57
77263;BME280;66373;52.334;4.806;2023-05-14T00:52:50;102000.38;;;22.47;49.61
77263;BME280;66373;52.334;4.806;2023-05-14T00:55:19;101995.22;;;22.43;49.62
77263;BME280;66373;52.334;4.806;2023-05-14T00:57:48;102005.66;;;22.44;49.62
77263;BME280;66373;52.334;4.806;2023-05-14T01:00:16;102000.44;;;22.44;49.52
77263;BME280;66373;52.334;4.806;2023-05-14T01:02:43;101997.84;;;22.43;49.47
77263;BME280;66373;52.334;4.806;2023-05-14T01:05:11;101990.06;;;22.38;49.65
77263;BME280;66373;52.334;4.806;2023-05-14T01:07:45;101997.88;;;22.41;49.56
77263;BME280;66373;52.334;4.806;2023-05-14T01:10:20;102000.50;;;22.41;49.57
77263;BME280;66373;52.334;4.806;2023-05-14T01:12:54;101997.03;;;22.39;49.73
77263;BME280;66373;52.334;4.806;2023-05-14T01:15:29;101952.22;;;22.10;49.49
77263;BME280;66373;52.334;4.806;2023-05-14T01:17:59;101983.09;;;22.37;49.58
77263;BME280;66373;52.334;4.806;2023-05-14T01:20:27;101991.84;;;22.36;49.63
77263;BME280;66373;52.334;4.806;2023-05-14T01:22:56;101987.50;;;22.35;49.80
77263;BME280;66373;52.334;4.806;2023-05-14T01:25:23;101983.19;;;22.34;49.60
77263;BME280;66373;52.334;4.806;2023-05-14T01:27:55;101981.47;;;22.33;49.62
77263;BME280;66373;52.334;4.806;2023-05-14T01:30:33;101984.13;;;22.31;49.46
77263;BME280;66373;52.334;4.806;2023-05-14T01:33:04;101983.25;;;22.31;49.70
77263;BME280;66373;52.334;4.806;2023-05-14T01:35:32;101980.66;;;22.29;49.64
77263;BME280;66373;52.334;4.806;2023-05-14T01:38:02;101979.78;;;22.29;49.57
77263;BME280;66373;52.334;4.806;2023-05-14T01:40:31;101972.06;;;22.21;49.91
77263;BME280;66373;52.334;4.806;2023-05-14T01:42:59;101981.59;;;22.27;49.60
77263;BME280;66373;52.334;4.806;2023-05-14T01:45:26;101974.59;;;22.26;49.68
77263;BME280;66373;52.334;4.806;2023-05-14T01:47:53;101977.25;;;22.24;49.49
77263;BME280;66373;52.334;4.806;2023-05-14T01:50:20;101986.03;;;22.23;49.61
77263;BME280;66373;52.334;4.806;2023-05-14T01:52:48;101964.41;;;22.11;49.31
77263;BME280;66373;52.334;4.806;2023-05-14T01:55:19;101983.47;;;22.20;49.53
77263;BME280;66373;52.334;4.806;2023-05-14T01:57:46;101973.13;;;22.13;49.55
77263;BME280;66373;52.334;4.806;2023-05-14T02:00:14;101978.25;;;22.19;49.84
77263;BME280;66373;52.334;4.806;2023-05-14T02:02:41;101970.53;;;22.11;49.66
77263;BME280;66373;52.334;4.806;2023-05-14T02:05:19;101974.78;;;22.17;49.55
77263;BME280;66373;52.334;4.806;2023-05-14T02:07:46;101973.06;;;22.16;49.61
77263;BME280;66373;52.334;4.806;2023-05-14T02:10:15;101966.09;;;22.15;49.80
77263;BME280;66373;52.334;4.806;2023-05-14T02:12:43;101911.63;;;21.86;49.60
77263;BME280;66373;52.334;4.806;2023-05-14T02:15:10;101966.19;;;22.10;49.72
77263;BME280;66373;52.334;4.806;2023-05-14T02:17:38;101960.91;;;22.12;49.79
77263;BME280;66373;52.334;4.806;2023-05-14T02:20:06;101962.69;;;22.10;49.63
77263;BME280;66373;52.334;4.806;2023-05-14T02:22:35;101948.91;;;22.02;49.41
77263;BME280;66373;52.334;4.806;2023-05-14T02:25:03;101955.81;;;22.06;49.77
77263;BME280;66373;52.334;4.806;2023-05-14T02:27:30;101948.06;;;21.98;49.50
77263;BME280;66373;52.334;4.806;2023-05-14T02:29:58;101955.81;;;22.06;49.35
77263;BME280;66373;52.334;4.806;2023-05-14T02:32:26;101950.56;;;22.06;49.78
77263;BME280;66373;52.334;4.806;2023-05-14T02:34:53;101937.63;;;21.96;49.87
77263;BME280;66373;52.334;4.806;2023-05-14T02:37:20;101948.00;;;22.03;49.49
77263;BME280;66373;52.334;4.806;2023-05-14T02:39:48;101926.34;;;21.93;49.49
77263;BME280;66373;52.334;4.806;2023-05-14T02:42:15;101936.69;;;22.00;49.83
77263;BME280;66373;52.334;4.806;2023-05-14T02:44:42;101938.44;;;22.00;49.83
77263;BME280;66373;52.334;4.806;2023-05-14T02:47:11;101935.06;;;21.93;49.72
77263;BME280;66373;52.334;4.806;2023-05-14T02:49:38;101922.97;;;21.86;49.78
77263;BME280;66373;52.334;4.806;2023-05-14T02:52:06;101935.00;;;21.96;49.38
77263;BME280;66373;52.334;4.806;2023-05-14T02:54:33;101916.09;;;21.82;49.58
77263;BME280;66373;52.334;4.806;2023-05-14T02:57:00;101931.50;;;21.96;49.63
77263;BME280;66373;52.334;4.806;2023-05-14T02:59:28;101936.78;;;21.94;49.74
77263;BME280;66373;52.334;4.806;2023-05-14T03:01:56;101936.84;;;21.91;49.39
77263;BME280;66373;52.334;4.806;2023-05-14T03:04:24;101935.94;;;21.92;49.60
77263;BME280;66373;52.334;4.806;2023-05-14T03:06:51;101933.34;;;21.91;49.53
77263;BME280;66373;52.334;4.806;2023-05-14T03:09:19;101923.81;;;21.87;49.78
77263;BME280;66373;52.334;4.806;2023-05-14T03:11:46;101935.13;;;21.90;49.71
77263;BME280;66373;52.334;4.806;2023-05-14T03:14:13;101936.91;;;21.88;49.53
77263;BME280;66373;52.334;4.806;2023-05-14T03:16:40;101916.16;;;21.79;49.35
77263;BME280;66373;52.334;4.806;2023-05-14T03:19:07;101832.53;;;21.25;49.85
77263;BME280;66373;52.334;4.806;2023-05-14T03:21:36;101936.06;;;21.86;49.57
77263;BME280;66373;52.334;4.806;2023-05-14T03:24:03;101930.09;;;21.80;49.44
77263;BME280;66373;52.334;4.806;2023-05-14T03:26:31;101936.13;;;21.83;49.62
77263;BME280;66373;52.334;4.806;2023-05-14T03:28:58;101933.50;;;21.83;49.80
77263;BME280;66373;52.334;4.806;2023-05-14T03:31:25;101919.72;;;21.75;49.63
77263;BME280;66373;52.334;4.806;2023-05-14T03:33:55;101924.03;;;21.78;49.54
77263;BME280;66373;52.334;4.806;2023-05-14T03:36:22;101886.84;;;21.59;49.78
77263;BME280;66373;52.334;4.806;2023-05-14T03:38:50;101923.22;;;21.74;49.70
77263;BME280;66373;52.334;4.806;2023-05-14T03:41:18;101913.63;;;21.73;49.54
77263;BME280;66373;52.334;4.806;2023-05-14T03:43:46;101917.06;;;21.77;49.67
77263;BME280;66373;52.334;4.806;2023-05-14T03:46:13;101908.50;;;21.67;49.55
77263;BME280;66373;52.334;4.806;2023-05-14T03:48:41;101920.66;;;21.71;49.54
77263;BME280;66373;52.334;4.806;2023-05-14T03:51:11;101920.59;;;21.74;49.67
77263;BME280;66373;52.334;4.806;2023-05-14T03:53:38;101922.38;;;21.74;49.66
77263;BME280;66373;52.334;4.806;2023-05-14T03:56:07;101905.91;;;21.67;49.72
77263;BME280;66373;52.334;4.806;2023-05-14T03:58:35;101911.06;;;21.70;49.56
77263;BME280;66373;52.334;4.806;2023-05-14T04:01:02;101914.59;;;21.69;49.70
77263;BME280;66373;52.334;4.806;2023-05-14T04:03:29;101909.41;;;21.66;49.76
77263;BME280;66373;52.334;4.806;2023-05-14T04:05:56;101912.88;;;21.68;49.76
77263;BME280;66373;52.334;4.806;2023-05-14T04:08:23;101883.53;;;21.51;49.56
77263;BME280;66373;52.334;4.806;2023-05-14T04:10:50;101916.38;;;21.67;49.89
77263;BME280;66373;52.334;4.806;2023-05-14T04:13:19;101911.13;;;21.67;49.77
77263;BME280;66373;52.334;4.806;2023-05-14T04:15:47;101912.06;;;21.64;49.65
77263;BME280;66373;52.334;4.806;2023-05-14T04:18:14;101904.28;;;21.60;49.57
77263;BME280;66373;52.334;4.806;2023-05-14T04:20:41;101914.69;;;21.63;49.79
77263;BME280;66373;52.334;4.806;2023-05-14T04:23:10;101908.75;;;21.56;49.64
77263;BME280;66373;52.334;4.806;2023-05-14T04:25:37;101912.97;;;21.62;49.44
77263;BME280;66373;52.334;4.806;2023-05-14T04:28:05;101903.44;;;21.58;49.51
77263;BME280;66373;52.334;4.806;2023-05-14T04:30:33;101906.03;;;21.59;49.66
77263;BME280;66373;52.334;4.806;2023-05-14T04:33:00;101907.78;;;21.59;49.87
77263;BME280;66373;52.334;4.806;2023-05-14T04:35:28;101906.06;;;21.58;49.70
77263;BME280;66373;52.334;4.806;2023-05-14T04:37:55;101842.44;;;21.05;49.90
77263;BME280;66373;52.334;4.806;2023-05-14T04:40:22;101923.53;;;21.57;50.09
77263;BME280;66373;52.334;4.806;2023-05-14T04:42:49;101923.69;;;21.50;49.78
77263;BME280;66373;52.334;4.806;2023-05-14T04:45:16;101934.06;;;21.56;49.99
77263;BME280;66373;52.334;4.806;2023-05-14T04:47:46;101921.84;;;21.55;49.79
77263;BME280;66373;52.334;4.806;2023-05-14T04:50:13;101928.94;;;21.50;49.82
77263;BME280;66373;52.334;4.806;2023-05-14T04:52:41;101925.38;;;21.54;49.72
77263;BME280;66373;52.334;4.806;2023-05-14T04:55:08;101936.72;;;21.53;49.97
77263;BME280;66373;52.334;4.806;2023-05-14T04:57:36;101933.25;;;21.52;49.96
77263;BME280;66373;52.334;4.806;2023-05-14T05:00:03;101896.81;;;21.40;50.14
77263;BME280;66373;52.334;4.806;2023-05-14T05:02:32;101925.41;;;21.51;49.73
77263;BME280;66373;52.334;4.806;2023-05-14T05:05:02;101919.31;;;21.50;49.80
77263;BME280;66373;52.334;4.806;2023-05-14T05:07:29;101919.38;;;21.47;50.01
77263;BME280;66373;52.334;4.806;2023-05-14T05:09:56;101889.19;;;21.29;49.89
77263;BME280;66373;52.334;4.806;2023-05-14T05:12:23;101921.19;;;21.44;50.16
77263;BME280;66373;52.334;4.806;2023-05-14T05:14:50;101923.78;;;21.44;49.92
77263;BME280;66373;52.334;4.806;2023-05-14T05:17:17;101939.44;;;21.47;49.95
77263;BME280;66373;52.334;4.806;2023-05-14T05:19:44;101935.09;;;21.46;49.93
77263;BME280;66373;52.334;4.806;2023-05-14T05:22:13;101926.50;;;21.39;50.20
77263;BME280;66373;52.334;4.806;2023-05-14T05:24:40;101862.63;;;21.00;49.96
77263;BME280;66373;52.334;4.806;2023-05-14T05:27:07;101936.00;;;21.45;49.91
77263;BME280;66373;52.334;4.806;2023-05-14T05:29:35;101901.47;;;21.24;50.12
77263;BME280;66373;52.334;4.806;2023-05-14T05:32:03;101937.78;;;21.43;50.26
77263;BME280;66373;52.334;4.806;2023-05-14T05:34:30;101915.25;;;21.32;49.97
77263;BME280;66373;52.334;4.806;2023-05-14T05:36:57;101927.31;;;21.43;50.12
77263;BME280;66373;52.334;4.806;2023-05-14T05:39:26;101930.81;;;21.42;50.17
77263;BME280;66373;52.334;4.806;2023-05-14T05:41:59;101930.84;;;21.40;50.28
77263;BME280;66373;52.334;4.806;2023-05-14T05:44:27;101917.88;;;21.32;50.02
77263;BME280;66373;52.334;4.806;2023-05-14T05:46:54;101936.09;;;21.39;50.17
77263;BME280;66373;52.334;4.806;2023-05-14T05:49:24;101930.81;;;21.42;50.04
77263;BME280;66373;52.334;4.806;2023-05-14T05:51:54;101942.16;;;21.41;50.10
77263;BME280;66373;52.334;4.806;2023-05-14T05:54:22;101939.56;;;21.41;50.18
77263;BME280;66373;52.334;4.806;2023-05-14T05:56:51;101894.56;;;21.17;50.06
77263;BME280;66373;52.334;4.806;2023-05-14T05:59:18;101934.31;;;21.41;49.84
77263;BME280;66373;52.334;4.806;2023-05-14T06:01:45;101948.28;;;21.40;49.78
77263;BME280;66373;52.334;4.806;2023-05-14T06:04:12;101949.16;;;21.40;49.97
77263;BME280;66373;52.334;4.806;2023-05-14T06:06:39;101950.03;;;21.41;50.07
77263;BME280;66373;52.334;4.806;2023-05-14T06:09:06;101937.81;;;21.40;50.13
77263;BME280;66373;52.334;4.806;2023-05-14T06:11:34;101950.03;;;21.41;49.71
77263;BME280;66373;52.334;4.806;2023-05-14T06:14:04;101883.41;;;21.06;50.20
77263;BME280;66373;52.334;4.806;2023-05-14T06:16:31;101949.16;;;21.40;49.91
77263;BME280;66373;52.334;4.806;2023-05-14T06:18:58;101948.28;;;21.40;50.41
77263;BME280;66373;52.334;4.806;2023-05-14T06:21:26;101922.34;;;21.27;50.16
77263;BME280;66373;52.334;4.806;2023-05-14T06:23:53;101943.06;;;21.40;50.05
77263;BME280;66373;52.334;4.806;2023-05-14T06:26:20;101937.81;;;21.40;49.95
77263;BME280;66373;52.334;4.806;2023-05-14T06:28:48;101930.06;;;21.35;50.10
77263;BME280;66373;52.334;4.806;2023-05-14T06:31:16;101937.03;;;21.34;50.08
77263;BME280;66373;52.334;4.806;2023-05-14T06:33:44;101940.50;;;21.37;50.11
77263;BME280;66373;52.334;4.806;2023-05-14T06:36:11;101948.34;;;21.37;49.95
77263;BME280;66373;52.334;4.806;2023-05-14T06:38:38;101932.69;;;21.33;50.39
77263;BME280;66373;52.334;4.806;2023-05-14T06:41:05;101936.16;;;21.36;50.23
77263;BME280;66373;52.334;4.806;2023-05-14T06:43:32;101880.81;;;21.06;49.91
77263;BME280;66373;52.334;4.806;2023-05-14T06:45:59;101937.88;;;21.37;49.94
77263;BME280;66373;52.334;4.806;2023-05-14T06:48:27;101940.47;;;21.38;50.01
77263;BME280;66373;52.334;4.806;2023-05-14T06:50:55;101943.91;;;21.42;50.03
77263;BME280;66373;52.334;4.806;2023-05-14T06:53:22;101937.81;;;21.40;49.90
77263;BME280;66373;52.334;4.806;2023-05-14T06:55:49;101945.63;;;21.43;49.98
77263;BME280;66373;52.334;4.806;2023-05-14T06:58:16;101937.78;;;21.43;49.71
77263;BME280;66373;52.334;4.806;2023-05-14T07:00:43;101905.84;;;21.24;49.54
77263;BME280;66373;52.334;4.806;2023-05-14T07:03:13;101912.75;;;21.28;49.63
77263;BME280;66373;52.334;4.806;2023-05-14T07:05:42;101935.13;;;21.44;49.63
77263;BME280;66373;52.334;4.806;2023-05-14T07:08:11;101936.91;;;21.42;49.72
77263;BME280;66373;52.334;4.806;2023-05-14T07:10:38;101946.47;;;21.45;49.82
77263;BME280;66373;52.334;4.806;2023-05-14T07:13:05;101948.19;;;21.46;49.88
77263;BME280;66373;52.334;4.806;2023-05-14T07:15:32;101861.94;;;20.89;49.96
77263;BME280;66373;52.334;4.806;2023-05-14T07:17:59;101895.50;;;21.15;50.15
77263;BME280;66373;52.334;4.806;2023-05-14T07:20:26;101950.78;;;21.47;49.78
77263;BME280;66373;52.334;4.806;2023-05-14T07:22:55;101944.69;;;21.47;49.72
77263;BME280;66373;52.334;4.806;2023-05-14T07:25:22;101951.66;;;21.48;49.76
77263;BME280;66373;52.334;4.806;2023-05-14T07:27:49;101944.69;;;21.47;49.82
77263;BME280;66373;52.334;4.806;2023-05-14T07:30:16;101842.78;;;20.87;49.82
77263;BME280;66373;52.334;4.806;2023-05-14T07:32:45;101892.84;;;21.16;49.73
77263;BME280;66373;52.334;4.806;2023-05-14T07:35:15;101838.38;;;20.89;49.81
77263;BME280;66373;52.334;4.806;2023-05-14T07:37:44;101936.78;;;21.50;49.92
77263;BME280;66373;52.334;4.806;2023-05-14T07:40:13;101943.78;;;21.49;49.71
77263;BME280;66373;52.334;4.806;2023-05-14T07:42:40;101950.72;;;21.52;49.63
77263;BME280;66373;52.334;4.806;2023-05-14T07:45:08;101929.94;;;21.41;49.95
77263;BME280;66373;52.334;4.806;2023-05-14T07:47:35;101939.44;;;21.47;49.71
77263;BME280;66373;52.334;4.806;2023-05-14T07:50:02;101938.53;;;21.49;50.21
77263;BME280;66373;52.334;4.806;2023-05-14T07:52:30;101934.09;;;21.54;50.06
77263;BME280;66373;52.334;4.806;2023-05-14T07:54:57;101937.56;;;21.55;49.88
77263;BME280;66373;52.334;4.806;2023-05-14T07:57:29;101926.34;;;21.48;49.97
77263;BME280;66373;52.334;4.806;2023-05-14T07:59:56;101873.38;;;21.32;50.04
77263;BME280;66373;52.334;4.806;2023-05-14T08:02:23;101920.03;;;21.57;49.91
77263;BME280;66373;52.334;4.806;2023-05-14T08:04:50;101922.63;;;21.58;50.07
77263;BME280;66373;52.334;4.806;2023-05-14T08:07:17;101922.59;;;21.60;49.89
77263;BME280;66373;52.334;4.806;2023-05-14T08:09:44;101926.94;;;21.61;50.17
77263;BME280;66373;52.334;4.806;2023-05-14T08:12:11;101932.19;;;21.61;49.80
77263;BME280;66373;52.334;4.806;2023-05-14T08:14:40;101922.56;;;21.63;50.12
77263;BME280;66373;52.334;4.806;2023-05-14T08:17:07;101916.44;;;21.64;50.15
77263;BME280;66373;52.334;4.806;2023-05-14T08:19:34;101913.78;;;21.65;50.05
77263;BME280;66373;52.334;4.806;2023-05-14T08:22:04;101918.16;;;21.65;50.21
77263;BME280;66373;52.334;4.806;2023-05-14T08:24:31;101913.78;;;21.65;50.08
77263;BME280;66373;52.334;4.806;2023-05-14T08:26:58;101909.34;;;21.69;50.10
77263;BME280;66373;52.334;4.806;2023-05-14T08:29:26;101893.03;;;21.56;50.23
77263;BME280;66373;52.334;4.806;2023-05-14T08:31:55;101893.81;;;21.60;50.09
77263;BME280;66373;52.334;4.806;2023-05-14T08:34:22;101912.81;;;21.71;50.45
77263;BME280;66373;52.334;4.806;2023-05-14T08:36:50;101898.91;;;21.67;50.02
77263;BME280;66373;52.334;4.806;2023-05-14T08:39:18;101903.22;;;21.70;49.99
77263;BME280;66373;52.334;4.806;2023-05-14T08:41:45;101908.34;;;21.76;50.08
77263;BME280;66373;52.334;4.806;2023-05-14T08:44:14;101893.53;;;21.75;50.41
77263;BME280;66373;52.334;4.806;2023-05-14T08:46:41;101900.44;;;21.79;50.18
77263;BME280;66373;52.334;4.806;2023-05-14T08:49:14;101863.25;;;21.60;50.17
77263;BME280;66373;52.334;4.806;2023-05-14T08:51:45;101862.53;;;21.54;50.14
77263;BME280;66373;52.334;4.806;2023-05-14T08:54:14;101896.78;;;21.86;50.45
77263;BME280;66373;52.334;4.806;2023-05-14T08:56:43;101894.19;;;21.85;50.30
77263;BME280;66373;52.334;4.806;2023-05-14T08:59:11;101871.69;;;21.76;50.07
77263;BME280;66373;52.334;4.806;2023-05-14T09:01:44;101791.38;;;21.33;50.42
77263;BME280;66373;52.334;4.806;2023-05-14T09:04:14;101887.06;;;21.91;50.26
77263;BME280;66373;52.334;4.806;2023-05-14T09:06:42;101864.63;;;21.80;50.14
77263;BME280;66373;52.334;4.806;2023-05-14T09:09:10;101884.38;;;21.94;50.45
77263;BME280;66373;52.334;4.806;2023-05-14T09:11:40;101882.59;;;21.96;50.32
77263;BME280;66373;52.334;4.806;2023-05-14T09:14:07;101881.72;;;21.97;50.09
77263;BME280;66373;52.334;4.806;2023-05-14T09:16:34;101879.91;;;21.99;50.42
77263;BME280;66373;52.334;4.806;2023-05-14T09:19:02;101866.00;;;21.97;50.52
77263;BME280;66373;52.334;4.806;2023-05-14T09:21:31;101873.72;;;22.05;50.21
77263;BME280;66373;52.334;4.806;2023-05-14T09:23:58;101869.31;;;22.07;50.07
77263;BME280;66373;52.334;4.806;2023-05-14T09:26:26;101865.81;;;22.08;50.20
77263;BME280;66373;52.334;4.806;2023-05-14T09:28:57;101859.69;;;22.08;50.12
77263;BME280;66373;52.334;4.806;2023-05-14T09:31:28;101850.22;;;22.02;49.88
77263;BME280;66373;52.334;4.806;2023-05-14T09:33:56;101773.25;;;21.66;49.97
77263;BME280;66373;52.334;4.806;2023-05-14T09:36:24;101865.50;;;22.20;50.37
77263;BME280;66373;52.334;4.806;2023-05-14T09:38:55;101855.91;;;22.21;50.18
77263;BME280;66373;52.334;4.806;2023-05-14T09:41:22;101866.31;;;22.24;49.93
77263;BME280;66373;52.334;4.806;2023-05-14T09:43:50;101864.47;;;22.29;50.12
77263;BME280;66373;52.334;4.806;2023-05-14T09:46:17;101869.63;;;22.32;50.23
77263;BME280;66373;52.334;4.806;2023-05-14T09:48:45;101856.56;;;22.30;50.28
77263;BME280;66373;52.334;4.806;2023-05-14T09:51:12;101865.16;;;22.35;50.09
77263;BME280;66373;52.334;4.806;2023-05-14T09:53:40;101859.13;;;22.33;49.99
77263;BME280;66373;52.334;4.806;2023-05-14T09:56:10;101833.06;;;22.26;50.09
77263;BME280;66373;52.334;4.806;2023-05-14T09:58:37;101848.53;;;22.37;50.12
77263;BME280;66373;52.334;4.806;2023-05-14T10:01:05;101832.91;;;22.33;49.93
77263;BME280;66373;52.334;4.806;2023-05-14T10:03:38;101827.75;;;22.29;49.88
77263;BME280;66373;52.334;4.806;2023-05-14T10:06:06;101798.44;;;22.12;50.01
77263;BME280;66373;52.334;4.806;2023-05-14T10:08:39;101861.34;;;22.50;49.97
77263;BME280;66373;52.334;4.806;2023-05-14T10:11:13;101826.75;;;22.34;50.04
77263;BME280;66373;52.334;4.806;2023-05-14T10:13:44;101846.34;;;22.55;49.98
77263;BME280;66373;52.334;4.806;2023-05-14T10:16:15;101833.38;;;22.49;50.04
77263;BME280;66373;52.334;4.806;2023-05-14T10:18:49;101837.53;;;22.59;50.18
77263;BME280;66373;52.334;4.806;2023-05-14T10:21:21;101746.22;;;22.04;49.97
77263;BME280;66373;52.334;4.806;2023-05-14T10:23:50;101822.69;;;22.58;49.95
77263;BME280;66373;52.334;4.806;2023-05-14T10:26:27;101834.00;;;22.60;49.81
77263;BME280;66373;52.334;4.806;2023-05-14T10:28:56;101837.28;;;22.68;49.91
77263;BME280;66373;52.334;4.806;2023-05-14T10:31:44;101828.59;;;22.66;49.73
77263;BME280;66373;52.334;4.806;2023-05-14T10:34:35;101825.06;;;22.67;49.99
77263;BME280;66373;52.334;4.806;2023-05-14T10:37:08;101791.28;;;22.55;49.86
77263;BME280;66373;52.334;4.806;2023-05-14T10:39:49;101795.47;;;22.62;49.98
77263;BME280;66373;52.334;4.806;2023-05-14T10:42:19;101816.06;;;22.79;49.68
77263;BME280;66373;52.334;4.806;2023-05-14T10:44:50;101807.34;;;22.79;49.75
77263;BME280;66373;52.334;4.806;2023-05-14T10:47:18;101819.41;;;22.86;49.81
77263;BME280;66373;52.334;4.806;2023-05-14T10:49:46;101812.31;;;22.88;49.86
77263;BME280;66373;52.334;4.806;2023-05-14T10:52:18;101813.97;;;22.92;49.76
77263;BME280;66373;52.334;4.806;2023-05-14T10:54:50;101794.22;;;22.79;49.76
77263;BME280;66373;52.334;4.806;2023-05-14T10:57:24;101795.78;;;22.86;49.74
77263;BME280;66373;52.334;4.806;2023-05-14T10:59:52;101817.34;;;22.97;49.87
77263;BME280;66373;52.334;4.806;2023-05-14T11:02:34;101806.78;;;23.00;49.69
77263;BME280;66373;52.334;4.806;2023-05-14T11:05:06;101808.50;;;23.01;49.66
77263;BME280;66373;52.334;4.806;2023-05-14T11:07:36;101797.97;;;23.02;49.66
77263;BME280;66373;52.334;4.806;2023-05-14T11:10:05;101716.97;;;22.56;49.74
77263;BME280;66373;52.334;4.806;2023-05-14T11:12:35;101787.53;;;22.99;49.46
77263;BME280;66373;52.334;4.806;2023-05-14T11:15:13;101759.84;;;22.88;49.82
77263;BME280;66373;52.334;4.806;2023-05-14T11:17:45;101782.88;;;23.11;49.38
77263;BME280;66373;52.334;4.806;2023-05-14T11:20:18;101780.31;;;23.08;49.58
77263;BME280;66373;52.334;4.806;2023-05-14T11:22:47;101787.97;;;23.15;49.70
77263;BME280;66373;52.334;4.806;2023-05-14T11:25:16;101683.69;;;22.58;49.57
77263;BME280;66373;52.334;4.806;2023-05-14T11:27:49;101786.81;;;23.25;49.63
77263;BME280;66373;52.334;4.806;2023-05-14T11:30:17;101759.13;;;23.14;49.60
77263;BME280;66373;52.334;4.806;2023-05-14T11:32:46;101779.72;;;23.29;49.69
77263;BME280;66373;52.334;4.806;2023-05-14T11:35:14;101763.19;;;23.25;49.43
77263;BME280;66373;52.334;4.806;2023-05-14T11:37:41;101772.63;;;23.32;49.52
77263;BME280;66373;52.334;4.806;2023-05-14T11:40:14;101687.38;;;22.85;49.42
77263;BME280;66373;52.334;4.806;2023-05-14T11:42:41;101709.69;;;23.00;49.45
77263;BME280;66373;52.334;4.806;2023-05-14T11:45:13;101755.84;;;23.38;49.30
77263;BME280;66373;52.334;4.806;2023-05-14T11:47:51;101760.03;;;23.44;49.43
77263;BME280;66373;52.334;4.806;2023-05-14T11:50:20;101732.50;;;23.27;49.60
77263;BME280;66373;52.334;4.806;2023-05-14T11:52:47;101756.38;;;23.49;49.25
77263;BME280;66373;52.334;4.806;2023-05-14T11:55:15;101763.31;;;23.52;49.32
77263;BME280;66373;52.334;4.806;2023-05-14T11:57:42;101718.47;;;23.28;49.27
77263;BME280;66373;52.334;4.806;2023-05-14T12:00:12;101754.56;;;23.53;49.29
77263;BME280;66373;52.334;4.806;2023-05-14T12:02:46;101749.34;;;23.50;49.25
77263;BME280;66373;52.334;4.806;2023-05-14T12:05:13;101759.53;;;23.62;49.24
77263;BME280;66373;52.334;4.806;2023-05-14T12:07:46;101745.72;;;23.55;48.96
77263;BME280;66373;52.334;4.806;2023-05-14T12:10:14;101702.66;;;23.31;49.02
77263;BME280;66373;52.334;4.806;2023-05-14T12:12:44;101716.13;;;23.49;48.90
77263;BME280;66373;52.334;4.806;2023-05-14T12:15:14;101745.22;;;23.72;48.72
77263;BME280;66373;52.334;4.806;2023-05-14T12:17:50;101742.66;;;23.69;49.02
77263;BME280;66373;52.334;4.806;2023-05-14T12:20:17;101741.59;;;23.76;49.07
77263;BME280;66373;52.334;4.806;2023-05-14T12:22:44;101741.63;;;23.75;48.93
77263;BME280;66373;52.334;4.806;2023-05-14T12:25:12;101741.41;;;23.82;48.89
77263;BME280;66373;52.334;4.806;2023-05-14T12:27:40;101731.16;;;23.73;48.85
77263;BME280;66373;52.334;4.806;2023-05-14T12:30:12;101741.31;;;23.85;48.74
77263;BME280;66373;52.334;4.806;2023-05-14T12:32:40;101643.25;;;23.27;49.01
77263;BME280;66373;52.334;4.806;2023-05-14T12:35:07;101734.25;;;23.87;48.83
77263;BME280;66373;52.334;4.806;2023-05-14T12:37:35;101715.34;;;23.75;48.80
77263;BME280;66373;52.334;4.806;2023-05-14T12:40:05;101736.78;;;23.90;48.92
77263;BME280;66373;52.334;4.806;2023-05-14T12:42:33;101728.88;;;23.90;48.79
77263;BME280;66373;52.334;4.806;2023-05-14T12:45:00;101725.22;;;23.94;48.89
77263;BME280;66373;52.334;4.806;2023-05-14T12:47:33;101707.97;;;23.87;48.77
77263;BME280;66373;52.334;4.806;2023-05-14T12:50:00;101726.84;;;23.98;48.63
77263;BME280;66373;52.334;4.806;2023-05-14T12:52:30;101698.34;;;23.86;48.50
77263;BME280;66373;52.334;4.806;2023-05-14T12:54:57;101703.34;;;23.94;48.41
77263;BME280;66373;52.334;4.806;2023-05-14T12:57:25;101653.44;;;23.66;48.45